Welcome to Crazy Orc, l'antre du jeu de rôles à Lyon. Please login or sign up.

01 Juin 2023 à 04:31:35

Login with username, password and session length

Crazy Orc, l'antre du jeu de rôles à Lyon - Centre de statistiques

Statistiques générales

Total des membres:
673
Total des messages:
97413
Total des sujets:
4161
Total des catégories:
4
Membres en ligne:
43
Connexions simultanées:
808 - 21 Janvier 2020 à 20:55:59
En ligne aujourd'hui:
0
Total des pages vues:
35485840
Moyenne des inscriptions par jour:
0.26
Moyenne des messages par jour:
23.82
Moyenne des sujets par jour:
1.08
Total des sections:
40
Dernier membre:
Sammaël
Moyenne d'utilisateurs connectés par jour:
49.88
Statistiques des sexes:
Ne pas afficher: 335
Masculin: 283
Féminin: 55
Pages vues en moyenne par jour:
5984.12

Top 10 des posteurs

ManuDevil
6893
GroumpH
5098
nunch
3857
LeDupontesque
3051
jules
3025
Mandy
2883
Scratchy
2766
MAO
2493
snake
1947
Le0
1878

Top lanceurs de sujets

nunch
600
Morithil
371
ManuDevil
287
GroumpH
246
Scratchy
132
MAO
110
LeDupontesque
105
jules
99
snake
92
CCCP
85

Le plus de temps en ligne

Mandy
133 j 19 h 59 m
GroumpH
112 j 9 h 16 m
CCCP
87 j 14 h 7 m
Nukeflow
73 j 8 h 19 m
ManuDevil
68 j 12 h 39 m
Felipe
61 j 12 h 19 m
dao
56 j 17 h 58 m
nunch
49 j 1 h 40 m
Rh
42 j 23 h 32 m
Patate
42 j 11 h 24 m

Les utilisateurs les plus aimés

ManuDevil
16
Arkana31
8
Morithil
7
Patate
6
apoxx
4
DeReel (il)
3
Sannhya
2
Phil
2
Homme de Pierre
2
Azta
2

Historique du forum (basé sur l'heure interne du forum)

Résumé annuel Nouveaux sujets Nouveaux messages Nouveaux membres Connexions simultanées Pages vues
* 2023 87 534 57 182 1453315
Juin 2023 0 0 0 0 790
Mai 2023 23 124 16 182 262587
Avril 2023 19 159 11 174 284480
Mars 2023 13 86 6 155 330966
Février 2023 13 62 5 165 274947
Janvier 2023 19 103 19 148 299545
* 2022 183 1154 96 261 3778792
Décembre 2022 9 37 1 161 306381
Novembre 2022 16 103 6 261 350274
Octobre 2022 11 120 17 208 290108
Septembre 2022 17 115 6 258 357415
Août 2022 15 108 9 147 318817
2022-08-01 0 0 0 116 6843
2022-08-02 0 0 0 111 9274
2022-08-03 0 0 0 112 7595
2022-08-04 1 5 0 109 6193
2022-08-05 0 0 0 95 6361
2022-08-06 0 1 0 87 5804
2022-08-07 0 3 0 83 11749
2022-08-08 0 0 0 88 15704
2022-08-09 0 1 0 80 9660
2022-08-10 0 0 0 86 9352
2022-08-11 0 4 0 85 8513
2022-08-12 0 0 1 79 8042
2022-08-13 0 0 0 80 6219
2022-08-14 1 2 1 78 5982
2022-08-15 0 0 0 72 8920
2022-08-16 0 1 0 90 5805
2022-08-17 0 2 0 94 6057
2022-08-18 0 10 0 81 8447
2022-08-19 0 3 0 82 11675
2022-08-20 0 0 0 98 10849
2022-08-21 8 9 1 103 11267
2022-08-22 0 4 1 147 11819
2022-08-23 0 8 1 98 16038
2022-08-24 1 11 1 109 12745
2022-08-25 0 8 1 118 12740
2022-08-26 0 3 0 114 13536
2022-08-27 2 11 1 125 16331
2022-08-28 1 6 1 113 16216
2022-08-29 1 4 0 116 15342
2022-08-30 0 8 0 113 12550
2022-08-31 0 4 0 107 11189
Juillet 2022 13 69 4 208 308045
Juin 2022 14 76 4 62 333112
Mai 2022 16 118 8 91 339244
Avril 2022 18 133 12 61 254691
Mars 2022 15 123 8 65 281935
Février 2022 17 84 9 58 314588
Janvier 2022 22 68 12 70 324182
* 2021 129 756 53 338 4376522
Décembre 2021 8 37 0 129 661064
2021-12-01 0 1 0 86 10724
2021-12-02 0 6 0 91 7815
2021-12-03 0 0 0 93 7911
2021-12-04 0 5 0 92 10027
2021-12-05 2 2 0 86 10097
2021-12-06 0 0 0 129 7479
2021-12-07 0 0 0 101 8162
2021-12-08 0 2 0 42 6778
2021-12-09 0 0 0 40 7532
2021-12-10 4 6 0 55 7151
2021-12-11 0 1 0 42 9757
2021-12-12 0 0 0 53 12585
2021-12-13 0 2 0 48 10751
2021-12-14 0 0 0 40 13058
2021-12-15 0 1 0 35 11053
2021-12-16 0 3 0 50 9613
2021-12-17 0 1 0 47 11104
2021-12-18 0 0 0 42 9597
2021-12-19 0 2 0 48 9257
2021-12-20 2 2 0 45 10553
2021-12-21 0 0 0 47 10988
2021-12-22 0 0 0 44 14554
2021-12-23 0 1 0 47 43880
2021-12-24 0 1 0 46 49317
2021-12-25 0 0 0 47 49735
2021-12-26 0 0 0 44 48100
2021-12-27 0 1 0 41 54117
2021-12-28 0 0 0 37 47893
2021-12-29 0 0 0 38 54768
2021-12-30 0 0 0 38 48213
2021-12-31 0 0 0 38 48495
Novembre 2021 13 99 4 153 262314
Octobre 2021 20 208 15 159 298103
Septembre 2021 24 171 10 280 285455
Août 2021 11 33 7 73 231609
Juillet 2021 6 8 2 81 305173
2021-07-01 0 0 0 75 10036
2021-07-02 0 0 0 81 8440
2021-07-03 0 0 0 67 13230
2021-07-04 0 0 0 36 8785
2021-07-05 0 0 0 40 9194
2021-07-06 0 0 0 42 10481
2021-07-07 0 0 0 39 7665
2021-07-08 0 0 0 49 10484
2021-07-09 0 0 0 50 10282
2021-07-10 0 0 0 51 10523
2021-07-11 0 0 0 50 8246
2021-07-12 0 0 0 45 7596
2021-07-13 0 0 0 35 7852
2021-07-14 0 0 0 53 8163
2021-07-15 0 0 0 38 9082
2021-07-16 0 0 0 36 8446
2021-07-17 0 0 1 39 9669
2021-07-18 0 1 0 39 9019
2021-07-19 0 0 0 43 11040
2021-07-20 0 0 0 35 11389
2021-07-21 0 0 0 40 7890
2021-07-22 0 0 0 40 7654
2021-07-23 0 0 0 35 8792
2021-07-24 0 0 0 32 8114
2021-07-25 0 0 0 33 6522
2021-07-26 0 1 0 38 7728
2021-07-27 0 0 0 35 9299
2021-07-28 0 0 0 28 6500
2021-07-29 0 0 0 35 36222
2021-07-30 0 0 1 37 7791
2021-07-31 6 6 0 32 9039
Juin 2021 17 31 2 135 311168
Mai 2021 3 31 4 268 597777
Avril 2021 10 51 6 287 308355
Mars 2021 7 24 1 308 444900
Février 2021 5 29 2 338 223056
Janvier 2021 5 34 0 322 447548
* 2020 206 1716 105 808 4713463
Décembre 2020 6 38 2 320 310487
Novembre 2020 12 97 3 352 464426
Octobre 2020 21 169 7 346 497422
Septembre 2020 30 356 15 133 325183
Août 2020 16 147 7 163 471897
Juillet 2020 16 77 2 100 345760
Juin 2020 17 60 5 127 452817
Mai 2020 7 22 3 295 321652
Avril 2020 10 47 1 189 300030
Mars 2020 24 253 3 199 467854
2020-03-01 0 7 0 104 10346
2020-03-02 0 5 0 126 6471
2020-03-03 3 17 1 107 4913
2020-03-04 0 10 0 116 5122
2020-03-05 1 12 0 143 8779
2020-03-06 0 9 0 144 11988
2020-03-07 0 2 0 123 11124
2020-03-08 0 5 0 122 13134
2020-03-09 0 10 0 117 13459
2020-03-10 2 5 0 114 11164
2020-03-11 0 4 0 105 8274
2020-03-12 0 10 0 199 11093
2020-03-13 0 9 0 186 12284
2020-03-14 1 11 0 189 12386
2020-03-15 1 12 1 189 11665
2020-03-16 1 3 0 173 10318
2020-03-17 0 8 0 116 9643
2020-03-18 0 2 0 107 8287
2020-03-19 0 4 0 105 10639
2020-03-20 0 0 0 116 10883
2020-03-21 0 4 0 114 10354
2020-03-22 0 0 0 119 9230
2020-03-23 3 9 0 112 6679
2020-03-24 0 7 0 113 47441
2020-03-25 0 10 0 107 140101
2020-03-26 5 9 0 119 6876
2020-03-27 1 6 0 154 6818
2020-03-28 1 16 0 114 7190
2020-03-29 2 20 0 105 6840
2020-03-30 1 13 0 121 11552
2020-03-31 2 14 1 117 12801
Février 2020 18 171 9 323 281798
Janvier 2020 29 279 48 808 474137
* 2019 246 3411 313 446 3308531
Décembre 2019 18 159 26 446 351248
Novembre 2019 16 245 33 325 524135
2019-11-01 1 5 3 104 6570
2019-11-02 0 8 0 112 5937
2019-11-03 5 17 2 103 5135
2019-11-04 0 13 4 108 4364
2019-11-05 1 7 1 101 4644
2019-11-06 0 19 0 100 7049
2019-11-07 0 16 0 107 5602
2019-11-08 0 7 2 100 5473
2019-11-09 0 10 2 115 4378
2019-11-10 0 14 1 113 5596
2019-11-11 2 6 0 98 4288
2019-11-12 0 12 0 131 4467
2019-11-13 0 9 1 114 5320
2019-11-14 1 6 1 125 6683
2019-11-15 1 13 1 120 4926
2019-11-16 0 8 0 163 6256
2019-11-17 0 3 0 134 5852
2019-11-18 0 1 1 107 5431
2019-11-19 0 9 4 99 4758
2019-11-20 1 11 1 102 3814
2019-11-21 0 6 0 117 9376
2019-11-22 0 8 0 112 11663
2019-11-23 0 6 0 101 8399
2019-11-24 0 4 1 109 9641
2019-11-25 0 2 2 112 8759
2019-11-26 2 2 0 114 56347
2019-11-27 2 6 1 111 123100
2019-11-28 0 3 1 112 10114
2019-11-29 0 8 2 110 67835
2019-11-30 0 6 2 325 112358
Octobre 2019 24 272 59 121 189762
Septembre 2019 25 386 54 141 376708
Août 2019 22 257 31 122 225760
Juillet 2019 24 281 62 149 190301
2019-07-01 4 24 0 104 8142
2019-07-02 2 16 0 100 8838
2019-07-03 0 5 0 95 8928
2019-07-04 0 8 0 91 9284
2019-07-05 1 10 1 91 6175
2019-07-06 0 3 0 83 4015
2019-07-07 0 3 0 89 3603
2019-07-08 0 20 1 83 4139
2019-07-09 0 11 0 90 7781
2019-07-10 1 12 1 84 9897
2019-07-11 0 15 0 91 7893
2019-07-12 1 10 0 94 4561
2019-07-13 0 1 0 88 3908
2019-07-14 0 4 0 88 7782
2019-07-15 0 8 0 92 8996
2019-07-16 0 0 0 84 6713
2019-07-17 0 7 1 92 7822
2019-07-18 1 7 1 131 5964
2019-07-19 3 17 0 88 3871
2019-07-20 0 7 1 86 4460
2019-07-21 0 6 1 149 3654
2019-07-22 1 6 0 116 4333
2019-07-23 0 3 0 124 2777
2019-07-24 0 0 0 108 5144
2019-07-25 1 6 8 136 6264
2019-07-26 0 7 14 131 6609
2019-07-27 0 6 4 131 6579
2019-07-28 0 10 6 129 5658
2019-07-29 1 17 9 110 5459
2019-07-30 7 10 6 134 5038
2019-07-31 1 22 8 142 6014
Juin 2019 11 171 3 112 246519
Mai 2019 23 311 10 167 218891
Avril 2019 21 294 9 174 311459
Mars 2019 22 372 16 142 344146
Février 2019 18 288 4 110 142132
Janvier 2019 22 375 6 113 187470
* 2018 338 6176 81 641 2624946
Décembre 2018 43 306 8 253 421582
2018-12-01 1 13 0 108 10961
2018-12-02 0 3 1 109 14766
2018-12-03 0 17 0 108 18344
2018-12-04 0 4 0 111 20929
2018-12-05 1 19 1 111 11950
2018-12-06 8 18 0 111 14660
2018-12-07 13 27 0 107 14549
2018-12-08 2 12 0 100 8121
2018-12-09 4 26 0 97 8912
2018-12-10 0 12 0 94 9173
2018-12-11 1 7 0 104 7972
2018-12-12 0 13 0 253 12240
2018-12-13 2 10 0 245 6172
2018-12-14 0 17 1 134 6149
2018-12-15 0 6 0 160 5846
2018-12-16 2 14 1 106 5984
2018-12-17 2 10 0 104 5353
2018-12-18 0 9 0 98 5314
2018-12-19 0 5 0 100 3727
2018-12-20 0 3 0 96 2596
2018-12-21 0 5 0 23 4142
2018-12-22 0 2 0 24 6219
2018-12-23 0 5 0 21 8400
2018-12-24 0 2 0 18 10302
2018-12-25 1 2 0 23 11913
2018-12-26 0 7 0 22 8611
2018-12-27 1 1 1 24 17549
2018-12-28 0 2 2 24 151295
2018-12-29 5 13 0 49 2922
2018-12-30 0 17 1 49 3800
2018-12-31 0 5 0 46 2711
Novembre 2018 26 467 9 641 383363
Octobre 2018 34 527 6 321 248725
Septembre 2018 34 641 10 127 216306
Août 2018 32 583 16 101 188648
2018-08-01 0 26 0 98 6784
2018-08-02 0 29 0 101 6795
2018-08-03 0 11 0 93 6370
2018-08-04 5 19 1 90 6653
2018-08-05 4 23 0 93 6519
2018-08-06 0 24 0 95 6142
2018-08-07 2 23 1 94 5013
2018-08-08 0 18 0 93 6325
2018-08-09 1 9 0 98 6608
2018-08-10 1 13 1 101 6723
2018-08-11 0 17 1 94 6721
2018-08-12 1 9 2 92 6116
2018-08-13 2 19 0 93 6356
2018-08-14 0 5 0 90 6043
2018-08-15 1 16 0 93 6200
2018-08-16 1 34 0 89 6859
2018-08-17 0 25 0 86 5971
2018-08-18 0 27 1 90 6101
2018-08-19 4 24 0 94 6672
2018-08-20 0 10 1 83 6150
2018-08-21 1 9 2 93 5405
2018-08-22 1 24 0 90 4343
2018-08-23 3 23 3 89 5993
2018-08-24 1 54 3 92 7389
2018-08-25 0 13 0 84 5312
2018-08-26 0 3 0 83 5702
2018-08-27 0 9 0 82 5196
2018-08-28 2 10 0 84 5401
2018-08-29 1 8 0 82 4297
2018-08-30 1 19 0 27 4663
2018-08-31 0 30 0 22 7826
Juillet 2018 21 386 3 104 182475
Juin 2018 31 442 3 110 213303
Mai 2018 21 422 4 107 174393
Avril 2018 25 564 5 104 159849
Mars 2018 20 634 4 96 152933
2018-03-01 0 7 0 20 8226
2018-03-02 0 23 0 16 1189
2018-03-03 0 28 0 19 1566
2018-03-04 1 44 0 21 1915
2018-03-05 0 11 0 17 1328
2018-03-06 0 10 0 75 1912
2018-03-07 1 21 0 89 4461
2018-03-08 0 18 0 83 4381
2018-03-09 0 14 0 94 4761
2018-03-10 0 22 0 87 5080
2018-03-11 1 24 0 90 6619
2018-03-12 4 69 2 79 4642
2018-03-13 2 36 1 88 5239
2018-03-14 1 25 0 90 4987
2018-03-15 2 9 0 81 4572
2018-03-16 0 7 0 77 4268
2018-03-17 0 9 0 81 4271
2018-03-18 0 13 0 91 4435
2018-03-19 2 12 0 79 4301
2018-03-20 0 30 0 87 4317
2018-03-21 0 7 0 86 4027
2018-03-22 1 19 0 84 4514
2018-03-23 0 14 0 91 4486
2018-03-24 0 6 0 81 4292
2018-03-25 0 11 0 78 4516
2018-03-26 2 16 0 86 4584
2018-03-27 0 7 0 80 4375
2018-03-28 0 22 0 80 4705
2018-03-29 0 27 0 79 4483
2018-03-30 1 40 1 82 4671
2018-03-31 2 33 0 96 25810
Février 2018 25 631 7 93 121912
Janvier 2018 26 573 6 94 161457
* 2017 346 6100 56 180 1675168
Décembre 2017 37 499 6 91 136063
Novembre 2017 37 675 6 93 169670
2017-11-01 3 9 0 77 4022
2017-11-02 0 22 0 71 4259
2017-11-03 0 11 0 82 4272
2017-11-04 0 3 0 76 3820
2017-11-05 3 29 2 77 4573
2017-11-06 6 37 1 81 5440
2017-11-07 0 24 0 74 2841
2017-11-08 1 34 1 83 6609
2017-11-09 0 19 0 79 3795
2017-11-10 1 17 0 77 5155
2017-11-11 2 32 0 75 4737
2017-11-12 4 45 0 77 4783
2017-11-13 1 20 1 77 4342
2017-11-14 0 9 0 80 4249
2017-11-15 0 14 0 77 3973
2017-11-16 0 24 0 73 4676
2017-11-17 1 21 0 75 4258
2017-11-18 5 27 0 69 3974
2017-11-19 0 24 0 79 4936
2017-11-20 1 23 0 87 4575
2017-11-21 0 5 0 83 5092
2017-11-22 1 16 1 92 3731
2017-11-23 2 24 0 86 5187
2017-11-24 0 33 0 81 5193
2017-11-25 0 13 0 79 4469
2017-11-26 1 16 0 83 4212
2017-11-27 2 54 0 80 4643
2017-11-28 2 14 0 93 13745
2017-11-29 1 23 0 89 28566
2017-11-30 0 33 0 93 5543
Octobre 2017 15 426 2 93 151449
Septembre 2017 28 548 5 94 135543
Août 2017 29 384 6 99 148097
Juillet 2017 25 490 5 87 176472
2017-07-01 0 15 0 70 4062
2017-07-02 0 3 1 65 3539
2017-07-03 1 23 1 62 3836
2017-07-04 1 26 0 72 3952
2017-07-05 1 10 0 61 4350
2017-07-06 1 29 0 87 4569
2017-07-07 0 20 1 77 4031
2017-07-08 1 22 0 69 5874
2017-07-09 0 19 0 69 7487
2017-07-10 0 17 0 72 5879
2017-07-11 1 4 0 67 7492
2017-07-12 0 5 0 71 6813
2017-07-13 1 4 0 79 25553
2017-07-14 0 5 0 87 5690
2017-07-15 0 5 0 72 4170
2017-07-16 2 18 0 78 4326
2017-07-17 5 25 0 73 4689
2017-07-18 0 17 1 76 4440
2017-07-19 1 19 0 83 3965
2017-07-20 0 12 0 76 4047
2017-07-21 1 19 1 75 5666
2017-07-22 1 10 0 72 4430
2017-07-23 2 22 0 77 5427
2017-07-24 0 21 0 83 6448
2017-07-25 1 16 0 69 4956
2017-07-26 3 31 0 84 5953
2017-07-27 0 21 0 75 5107
2017-07-28 0 12 0 70 6063
2017-07-29 0 18 0 72 5667
2017-07-30 1 9 0 67 4294
2017-07-31 1 13 0 68 3697
Juin 2017 33 603 4 89 156248
Mai 2017 26 470 2 99 181189
Avril 2017 31 490 5 180 139896
2017-04-01 0 14 0 48 4179
2017-04-02 1 21 0 41 11405
2017-04-03 2 14 0 44 1551
2017-04-04 0 6 0 22 930
2017-04-05 2 13 0 19 1221
2017-04-06 0 20 0 20 4204
2017-04-07 0 9 0 19 2345
2017-04-08 1 18 0 22 2529
2017-04-09 1 5 1 17 1209
2017-04-10 3 36 1 44 2839
2017-04-11 2 22 0 74 4607
2017-04-12 2 19 0 62 5808
2017-04-13 0 31 0 64 3713
2017-04-14 2 35 0 59 3257
2017-04-15 0 8 0 68 3136
2017-04-16 0 12 0 63 3438
2017-04-17 2 22 0 58 3762
2017-04-18 2 30 0 81 5391
2017-04-19 1 23 1 122 6928
2017-04-20 1 8 0 68 5309
2017-04-21 0 14 0 51 3988
2017-04-22 0 2 0 47 4082
2017-04-23 2 18 0 51 6943
2017-04-24 1 15 1 51 4833
2017-04-25 2 26 1 180 6646
2017-04-26 3 19 0 83 8145
2017-04-27 0 2 0 68 8631
2017-04-28 0 2 0 61 4684
2017-04-29 1 18 0 58 6307
2017-04-30 0 8 0 54 7876
Mars 2017 27 432 3 119 90981
2017-03-01 1 13 0 20 1366
2017-03-02 1 7 1 15 939
2017-03-03 4 15 0 16 1322
2017-03-04 1 4 1 14 1224
2017-03-05 0 11 0 14 760
2017-03-06 1 36 1 17 1184
2017-03-07 0 14 0 18 1120
2017-03-08 2 22 0 19 1229
2017-03-09 1 23 0 15 1153
2017-03-10 0 22 0 15 1149
2017-03-11 0 15 0 16 1171
2017-03-12 3 16 0 91 4295
2017-03-13 0 14 0 91 4471
2017-03-14 1 18 0 79 3743
2017-03-15 0 9 0 71 3377
2017-03-16 1 16 0 70 3703
2017-03-17 0 8 0 73 3263
2017-03-18 0 13 0 64 3669
2017-03-19 0 9 0 92 3639
2017-03-20 0 11 0 90 4905
2017-03-21 2 6 0 83 5720
2017-03-22 2 14 0 95 4760
2017-03-23 1 9 0 66 6486
2017-03-24 2 12 0 65 2928
2017-03-25 0 15 0 67 3275
2017-03-26 2 8 0 55 1890
2017-03-27 0 16 0 119 3309
2017-03-28 1 17 0 87 4615
2017-03-29 0 20 0 86 4109
2017-03-30 1 7 0 69 3543
2017-03-31 0 12 0 73 2664
Février 2017 31 587 7 87 74924
Janvier 2017 27 496 5 80 114636
* 2016 389 7721 79 245 2075605
Décembre 2016 34 533 2 170 118206
2016-12-01 0 1 0 74 3445
2016-12-02 0 8 0 55 3761
2016-12-03 0 7 0 58 2184
2016-12-04 9 30 0 53 2958
2016-12-05 0 35 0 65 4219
2016-12-06 2 23 0 64 3665
2016-12-07 1 23 0 60 4594
2016-12-08 2 17 0 125 6276
2016-12-09 1 21 0 76 3458
2016-12-10 2 15 2 61 3661
2016-12-11 1 37 0 68 3369
2016-12-12 3 11 0 63 2902
2016-12-13 0 10 0 59 3821
2016-12-14 1 18 0 74 4666
2016-12-15 0 18 0 72 3378
2016-12-16 1 19 0 35 2487
2016-12-17 0 8 0 73 2573
2016-12-18 0 11 0 81 15525
2016-12-19 1 15 0 61 3437
2016-12-20 0 9 0 56 3667
2016-12-21 0 15 0 54 2974
2016-12-22 0 25 0 56 2993
2016-12-23 0 13 0 56 3867
2016-12-24 0 10 0 55 2712
2016-12-25 1 11 0 170 3278
2016-12-26 3 10 0 72 3609
2016-12-27 3 23 0 59 2265
2016-12-28 1 21 0 51 3618
2016-12-29 0 34 0 55 2903
2016-12-30 2 13 0 58 3351
2016-12-31 0 22 0 54 2590
Novembre 2016 34 586 6 245 122991
Octobre 2016 43 726 7 191 160217
Septembre 2016 26 657 9 85 157449
Août 2016 31 721 9 114 169873
Juillet 2016 19 513 3 58 166690
Juin 2016 30 565 5 53 211715
Mai 2016 40 1116 8 94 166514
Avril 2016 27 529 7 65 155208
2016-04-01 3 38 2 30 3618
2016-04-02 0 23 1 23 3917
2016-04-03 3 45 1 65 6292
2016-04-04 3 45 0 31 4738
2016-04-05 0 6 0 26 3350
2016-04-06 0 15 0 22 4462
2016-04-07 1 13 1 21 3485
2016-04-08 0 9 0 23 3328
2016-04-09 2 17 0 24 3870
2016-04-10 0 13 0 25 4267
2016-04-11 0 19 0 55 6024
2016-04-12 1 16 0 59 14106
2016-04-13 4 14 0 59 11237
2016-04-14 0 14 0 52 5426
2016-04-15 1 14 0 20 3457
2016-04-16 0 7 0 50 5198
2016-04-17 0 2 0 49 5204
2016-04-18 1 17 1 20 4013
2016-04-19 0 11 1 20 3807
2016-04-20 1 17 0 23 3488
2016-04-21 0 16 0 25 3419
2016-04-22 0 21 0 37 4063
2016-04-23 0 8 0 36 4166
2016-04-24 1 14 0 37 5654
2016-04-25 2 25 0 65 6602
2016-04-26 0 16 0 63 5983
2016-04-27 0 20 0 49 6244
2016-04-28 1 12 0 54 6223
2016-04-29 3 29 0 22 4065
2016-04-30 0 13 0 56 5502
Mars 2016 35 513 11 88 224056
Février 2016 35 640 4 96 192454
Janvier 2016 35 622 8 95 230232
* 2015 373 6684 79 100 1549803
Décembre 2015 28 499 7 68 140303
Novembre 2015 40 724 5 35 146607
Octobre 2015 32 760 10 84 227528
Septembre 2015 40 948 13 100 169012
Août 2015 36 566 12 61 119954
Juillet 2015 29 462 7 31 89666
Juin 2015 24 453 5 30 112317
Mai 2015 30 390 2 24 73874
Avril 2015 29 408 4 25 95371
2015-04-01 1 15 0 20 2794
2015-04-02 1 21 0 16 2834
2015-04-03 0 14 0 17 2508
2015-04-04 0 8 0 15 1598
2015-04-05 0 4 0 16 4225
2015-04-06 1 5 0 22 4037
2015-04-07 1 8 0 17 3300
2015-04-08 0 16 0 22 2846
2015-04-09 0 3 0 18 3300
2015-04-10 2 18 0 22 3304
2015-04-11 1 19 1 18 3102
2015-04-12 0 7 1 12 2663
2015-04-13 1 10 0 14 3621
2015-04-14 0 16 0 25 2946
2015-04-15 0 5 0 17 2800
2015-04-16 0 3 0 19 3815
2015-04-17 1 9 0 16 3313
2015-04-18 0 11 0 16 3035
2015-04-19 0 5 0 16 4184
2015-04-20 1 8 0 16 2818
2015-04-21 0 1 0 18 2616
2015-04-22 1 13 0 18 2909
2015-04-23 0 19 0 24 4246
2015-04-24 0 18 0 18 3149
2015-04-25 8 32 1 17 3211
2015-04-26 4 35 0 20 3250
2015-04-27 3 35 0 18 3609
2015-04-28 0 6 0 13 3318
2015-04-29 2 23 1 16 3839
2015-04-30 1 21 0 16 2181
Mars 2015 38 550 7 37 130116
Février 2015 15 434 2 24 123854
Janvier 2015 32 490 5 44 121201
* 2014 428 7364 58 58 2478164
Décembre 2014 24 360 4 33 191610
2014-12-01 0 4 0 21 6641
2014-12-02 2 17 0 26 7244
2014-12-03 0 9 0 31 7910
2014-12-04 1 11 0 26 8107
2014-12-05 1 10 1 23 7074
2014-12-06 0 6 0 33 8321
2014-12-07 1 18 0 20 5632
2014-12-08 1 17 0 24 7793
2014-12-09 1 19 0 21 5936
2014-12-10 0 8 0 17 5092
2014-12-11 0 6 0 20 5467
2014-12-12 0 6 0 27 7318
2014-12-13 1 17 0 23 10029
2014-12-14 1 6 0 24 6467
2014-12-15 1 12 0 23 8102
2014-12-16 0 12 0 20 6013
2014-12-17 0 3 0 22 6999
2014-12-18 0 5 1 22 6892
2014-12-19 1 10 0 21 7099
2014-12-20 1 13 0 19 7148
2014-12-21 0 2 0 27 4864
2014-12-22 0 2 0 23 5428
2014-12-23 2 12 0 20 5923
2014-12-24 1 11 0 21 4951
2014-12-25 0 8 1 19 4762
2014-12-26 6 28 0 17 4609
2014-12-27 0 21 0 24 6807
2014-12-28 3 51 1 19 4079
2014-12-29 0 9 0 17 3335
2014-12-30 0 3 0 16 2402
2014-12-31 0 4 0 18 3166
Novembre 2014 37 572 7 46 525858
Octobre 2014 45 928 8 58 364915
Septembre 2014 24 549 8 32 162413
Août 2014 17 251 4 27 191624
Juillet 2014 25 369 3 30 236312
Juin 2014 29 602 3 32 220918
Mai 2014 34 842 6 29 157174
Avril 2014 45 662 1 25 104486
2014-04-01 3 29 0 14 4594
2014-04-02 3 19 0 19 3032
2014-04-03 2 14 0 13 2744
2014-04-04 0 12 0 14 3214
2014-04-05 0 5 0 17 3260
2014-04-06 0 6 0 18 3097
2014-04-07 1 13 0 20 2585
2014-04-08 0 11 0 23 3197
2014-04-09 1 11 0 18 3647
2014-04-10 0 8 1 17 3928
2014-04-11 0 9 0 20 2170
2014-04-12 1 13 0 24 2967
2014-04-13 0 13 0 21 3698
2014-04-14 1 8 0 23 3494
2014-04-15 4 15 0 22 6980
2014-04-16 1 25 0 19 4022
2014-04-17 0 17 0 15 6056
2014-04-18 3 22 0 17 2815
2014-04-19 0 16 0 17 2641
2014-04-20 1 11 0 18 4085
2014-04-21 2 23 0 22 3723
2014-04-22 0 30 0 22 4837
2014-04-23 0 37 0 24 3303
2014-04-24 3 36 0 25 3341
2014-04-25 8 65 0 18 2930
2014-04-26 3 46 0 19 2659
2014-04-27 5 45 0 19 3483
2014-04-28 0 19 0 19 2858
2014-04-29 2 46 0 14 2266
2014-04-30 1 38 0 14 2860
Mars 2014 32 595 4 26 120439
Février 2014 24 660 5 28 102996
Janvier 2014 92 974 5 33 99419
* 2013 408 8887 76 89 1597727
Décembre 2013 36 785 2 79 132305
2013-12-01 3 40 0 21 5124
2013-12-02 0 18 0 23 3630
2013-12-03 1 22 0 18 2691
2013-12-04 0 21 0 20 2917
2013-12-05 2 34 1 74 3596
2013-12-06 0 14 0 29 4033
2013-12-07 0 11 0 21 3141
2013-12-08 2 50 0 20 11319
2013-12-09 3 47 0 79 15790
2013-12-10 0 42 0 40 6438
2013-12-11 0 29 0 23 4171
2013-12-12 1 32 0 22 3225
2013-12-13 1 21 0 26 3543
2013-12-14 0 11 0 23 4807
2013-12-15 0 20 0 17 3540
2013-12-16 5 50 0 22 4009
2013-12-17 2 27 0 23 3856
2013-12-18 1 53 0 23 4339
2013-12-19 0 23 0 18 3138
2013-12-20 0 5 0 16 1779
2013-12-21 1 26 0 22 3370
2013-12-22 3 27 0 22 4250
2013-12-23 0 7 1 16 2431
2013-12-24 1 16 0 14 2139
2013-12-25 1 20 0 14 2448
2013-12-26 0 14 0 17 3918
2013-12-27 0 31 0 27 3690
2013-12-28 2 32 0 22 4302
2013-12-29 2 16 0 19 3362
2013-12-30 3 13 0 15 3871
2013-12-31 2 13 0 19 3438
Novembre 2013 36 751 8 29 141119
Octobre 2013 37 683 10 26 116570
Septembre 2013 33 723 15 29 160779
Août 2013 20 356 4 30 113960
Juillet 2013 21 331 2 24 120164
Juin 2013 40 731 5 34 119512
Mai 2013 34 881 3 47 157484
Avril 2013 38 799 8 33 124279
2013-04-01 4 20 0 24 3359
2013-04-02 1 47 0 21 4467
2013-04-03 0 45 0 23 3233
2013-04-04 0 33 0 16 2834
2013-04-05 0 17 0 19 3016
2013-04-06 2 17 1 21 4302
2013-04-07 1 58 0 33 4201
2013-04-08 0 22 0 17 4107
2013-04-09 3 42 0 18 3737
2013-04-10 1 19 0 16 3054
2013-04-11 2 20 0 18 2700
2013-04-12 2 22 1 17 2910
2013-04-13 0 8 2 17 2288
2013-04-14 0 22 0 16 2273
2013-04-15 0 18 0 20 2553
2013-04-16 2 35 2 23 4161
2013-04-17 3 14 0 15 2830
2013-04-18 0 20 0 21 2765
2013-04-19 0 13 0 22 3929
2013-04-20 1 9 0 17 4630
2013-04-21 3 33 0 15 4446
2013-04-22 5 26 1 18 5097
2013-04-23 1 41 0 26 5957
2013-04-24 2 35 0 21 7277
2013-04-25 1 26 0 22 3866
2013-04-26 1 35 0 22 3466
2013-04-27 1 41 1 19 7601
2013-04-28 1 28 0 26 7931
2013-04-29 1 26 0 19 6992
2013-04-30 0 7 0 18 4297
Mars 2013 40 1111 9 62 147762
Février 2013 32 838 5 79 125299
Janvier 2013 41 898 5 89 138494
* 2012 446 10690 67 157 1274957
Décembre 2012 57 1411 4 45 150137
Novembre 2012 46 1137 8 25 112399
Octobre 2012 45 1068 7 25 80970
Septembre 2012 37 876 11 38 107023
Août 2012 30 595 5 41 95032
Juillet 2012 24 563 2 157 78638
2012-07-01 2 33 0 20 3383
2012-07-02 0 39 0 16 3176
2012-07-03 1 42 0 21 2769
2012-07-04 0 21 0 18 2427
2012-07-05 0 28 0 19 2191
2012-07-06 0 29 0 15 2402
2012-07-07 2 10 0 25 4165
2012-07-08 0 13 1 17 1741
2012-07-09 2 18 0 14 3585
2012-07-10 2 24 0 14 2317
2012-07-11 0 39 0 22 3204
2012-07-12 0 32 0 14 1963
2012-07-13 1 28 0 16 1977
2012-07-14 0 17 0 16 1834
2012-07-15 3 22 0 30 3446
2012-07-16 1 11 0 26 3044
2012-07-17 0 5 0 13 1616
2012-07-18 2 14 0 15 1754
2012-07-19 0 21 0 13 2427
2012-07-20 0 15 0 18 1824
2012-07-21 0 10 0 10 1292
2012-07-22 0 6 0 18 1434
2012-07-23 1 7 0 17 1873
2012-07-24 2 8 0 157 7112
2012-07-25 2 13 1 13 1667
2012-07-26 1 6 0 14 1478
2012-07-27 1 14 0 16 2610
2012-07-28 0 6 0 17 2026
2012-07-29 0 11 0 16 2266
2012-07-30 1 11 0 15 2745
2012-07-31 0 10 0 17 2890
Juin 2012 39 984 10 33 88620
Mai 2012 22 703 5 26 77701
Avril 2012 33 714 4 33 95151
Mars 2012 35 977 5 48 160160
Février 2012 34 704 5 33 117877
Janvier 2012 44 958 1 30 111249
* 2011 822 21877 118 48 1861895
Décembre 2011 68 1315 7 36 141929
Novembre 2011 94 1539 4 36 150015
Octobre 2011 81 1597 13 41 169207
Septembre 2011 96 1991 19 24 158540
Août 2011 68 1372 16 48 135201
Juillet 2011 57 1156 10 30 112626
Juin 2011 40 1214 6 31 149115
Mai 2011 64 1997 8 39 181997
Avril 2011 46 1637 9 38 176986
Mars 2011 54 2388 6 31 211307
Février 2011 59 2656 5 46 128248
Janvier 2011 95 3015 15 44 146724
* 2010 615 23079 70 91 1409620
Décembre 2010 54 2635 5 43 199984
Novembre 2010 59 2475 6 49 127779
Octobre 2010 56 2811 15 58 134942
Septembre 2010 53 1528 8 29 95249
Août 2010 32 1287 6 33 89617
Juillet 2010 34 1637 5 32 97290
2010-07-01 1 30 0 21 3321
2010-07-02 1 52 1 16 3049
2010-07-03 1 37 0 16 2560
2010-07-04 0 16 0 13 2269
2010-07-05 4 85 0 26 4056
2010-07-06 0 91 0 21 4081
2010-07-07 1 121 1 21 4639
2010-07-08 1 73 0 24 3929
2010-07-09 1 79 0 24 3726
2010-07-10 0 27 0 17 2693
2010-07-11 1 29 0 17 2442
2010-07-12 0 62 0 32 4813
2010-07-13 2 51 0 17 2918
2010-07-14 1 36 0 21 3013
2010-07-15 0 52 0 19 3510
2010-07-16 1 70 0 16 3362
2010-07-17 1 24 0 13 2507
2010-07-18 4 28 0 14 2203
2010-07-19 2 62 0 17 3256
2010-07-20 0 28 0 22 2386
2010-07-21 0 42 0 21 2918
2010-07-22 3 41 2 28 2834
2010-07-23 1 66 0 16 3158
2010-07-24 0 49 1 24 2730
2010-07-25 0 44 0 20 2856
2010-07-26 1 74 0 20 3201
2010-07-27 0 44 0 18 3066
2010-07-28 6 60 0 24 2949
2010-07-29 0 55 0 19 2833
2010-07-30 0 72 0 22 3484
2010-07-31 1 37 0 20 2528
Juin 2010 46 2137 3 28 109648
Mai 2010 50 1497 6 28 99050
Avril 2010 45 1888 3 26 102219
2010-04-01 3 88 0 18 4705
2010-04-02 1 97 1 17 5127
2010-04-03 0 48 1 16 4067
2010-04-04 0 25 0 17 3540
2010-04-05 2 54 0 15 3258
2010-04-06 0 69 0 19 3639
2010-04-07 1 67 0 19 3590
2010-04-08 5 109 0 25 4043
2010-04-09 2 117 0 22 4430
2010-04-10 0 44 0 17 2821
2010-04-11 2 71 0 18 3408
2010-04-12 2 101 0 21 4509
2010-04-13 1 64 0 16 3272
2010-04-14 2 56 0 19 3587
2010-04-15 2 42 1 20 3071
2010-04-16 2 48 0 18 3184
2010-04-17 0 37 0 17 2301
2010-04-18 0 20 0 17 2342
2010-04-19 1 45 0 22 3138
2010-04-20 2 70 0 18 3550
2010-04-21 1 33 0 16 2917
2010-04-22 2 70 0 26 3255
2010-04-23 0 60 0 22 3359
2010-04-24 4 34 0 16 2265
2010-04-25 4 71 0 18 2831
2010-04-26 1 105 0 23 3707
2010-04-27 3 68 0 19 2863
2010-04-28 0 43 0 20 3119
2010-04-29 0 61 0 16 3058
2010-04-30 2 71 0 15 3263
Mars 2010 53 1534 2 46 118201
Février 2010 65 1574 4 91 117274
Janvier 2010 68 2076 7 43 118367
* 2009 752 28223 96 159 970278
Décembre 2009 39 2001 5 54 122418
Novembre 2009 59 3138 6 38 117432
Octobre 2009 67 3218 11 18 122232
Septembre 2009 73 2730 14 159 92082
Août 2009 47 1405 8 15 61919
Juillet 2009 68 1737 11 21 67267
Juin 2009 63 2759 4 37 72789
Mai 2009 46 2166 6 16 66386
Avril 2009 101 2850 6 16 73303
Mars 2009 80 3538 7 17 83610
Février 2009 57 1586 6 16 50521
Janvier 2009 52 1095 12 10 40319
* 2008 334 4655 56 26 234055
Décembre 2008 36 663 7 12 28104
Novembre 2008 51 1090 9 10 35948
Octobre 2008 50 609 5 10 26582
Septembre 2008 40 619 5 10 24365
Août 2008 28 252 6 9 21916
Juillet 2008 20 256 5 7 16733
Juin 2008 17 363 6 26 18903
Mai 2008 17 180 2 10 13320
Avril 2008 16 146 3 8 16063
2008-04-01 1 11 0 4 553
2008-04-02 0 4 0 7 503
2008-04-03 2 14 1 4 1518
2008-04-04 0 6 0 0 1184
2008-04-05 0 2 0 3 955
2008-04-06 1 4 0 4 680
2008-04-07 1 6 0 4 582
2008-04-08 0 6 0 4 448
2008-04-09 0 1 0 3 419
2008-04-10 1 1 0 5 432
2008-04-11 0 1 0 3 780
2008-04-12 0 4 0 5 909
2008-04-13 0 4 0 3 540
2008-04-14 0 3 1 0 516
2008-04-15 0 1 0 0 343
2008-04-16 0 3 0 0 602
2008-04-17 0 0 0 8 283
2008-04-18 0 1 0 0 415
2008-04-19 0 1 1 4 429
2008-04-20 2 3 0 4 410
2008-04-21 3 15 0 4 521
2008-04-22 0 14 0 6 672
2008-04-23 1 12 0 4 399
2008-04-24 0 3 0 4 350
2008-04-25 0 2 0 4 190
2008-04-26 2 4 0 5 229
2008-04-27 0 2 0 4 308
2008-04-28 0 1 0 4 265
2008-04-29 0 4 0 4 250
2008-04-30 2 13 0 5 378
Mars 2008 18 158 1 9 12835
Février 2008 19 155 2 9 9679
Janvier 2008 22 164 5 7 9607
2008-01-01 0 0 0 3 156
2008-01-02 1 6 0 3 272
2008-01-03 0 4 1 5 375
2008-01-04 0 10 0 5 389
2008-01-05 0 3 1 0 262
2008-01-06 0 3 0 7 269
2008-01-07 1 4 1 0 273
2008-01-08 1 5 0 4 363
2008-01-09 1 6 0 4 353
2008-01-10 2 18 0 4 470
2008-01-11 0 2 0 5 307
2008-01-12 0 0 0 2 173
2008-01-13 0 8 0 3 213
2008-01-14 0 5 0 6 311
2008-01-15 0 4 0 4 276
2008-01-16 0 3 0 4 283
2008-01-17 1 4 0 5 318
2008-01-18 0 7 0 5 340
2008-01-19 1 4 0 5 253
2008-01-20 0 2 1 4 270
2008-01-21 0 4 0 5 319
2008-01-22 2 2 0 0 196
2008-01-23 1 3 0 3 205
2008-01-24 0 6 0 4 222
2008-01-25 0 4 0 4 317
2008-01-26 0 2 0 4 258
2008-01-27 2 4 0 5 300
2008-01-28 4 13 1 5 640
2008-01-29 2 13 0 5 449
2008-01-30 2 9 0 0 384
2008-01-31 1 6 0 4 391
* 2007 276 2246 55 9 102999
Décembre 2007 21 167 5 8 17081
Novembre 2007 20 168 3 6 8467
Octobre 2007 21 147 4 5 8193
Septembre 2007 22 183 4 9 9896
Août 2007 23 226 2 6 9096
Juillet 2007 18 127 1 4 10165
Juin 2007 25 309 2 6 13196
Mai 2007 30 315 8 7 11830
Avril 2007 44 428 13 9 13382
Mars 2007 52 176 13 4 1693